Hovedside
METAR-TAF:

METAR-TAF

Lufthavner :

Hans Christian Andersen Airport

Odense, Danmark

breddegrad: 55-29N, lengdegrad: 010-20E, høyde over havet: 17 m

Gjeldene værobservasjon

Denne rapporten ble laget for 2 timer og 57 minutter siden, klokken 15:50 UTC
Vind 16 kt fra Øst-nordøst
Temperatur 5°C
Luftfuktighet 87%
Trykk 1029 hPa
Sikt 10 km eller mer
Brutte skyer i en høyde av 2800 ft
Brutte skyer i en høyde av 3200 ft

METAR: EKOD 191550Z 06016KT 9999 BKN028 BKN032 05/03 Q1029

Tid: 19:47 (18:47 UTC)

Varsel

Denne rapporten ble laget for 6 timer og 48 minutter siden, klokken 11:59 UTC
Varsel gyldig fra 19. klokken 12 UTC til 19. klokken 17 UTC
Vind 15 kt fra Øst-nordøst
Sikt 10 km eller mer
Brutte skyer i en høyde av 3000 ft
Midlertidig
fra 19. klokken 12 UTC til 19. klokken 17 UTC
Vind 15 kt fra Øst-nordøst med vindkast opp mot 25 kt

TAF: EKOD 191159Z 1912/1917 07015KT 9999 BKN030 TEMPO 1912/1917 07015G25KT

Værobservasjoner og værvarsel for over 4000 flyplasser (METAR- og TAF-rapporter).

Tilgjengelige stasjoner er representert av de røde og gule prikkene på kartet.

Hold musepekeren over prikken for å se navnet på stasjonen.

Klikk så for å se værobservasjoner og -varsler.

For å forandre kartet kan du klikke på den grønne knappen med svart kryss for å zoome inn, på den grønne knappen med strek for å zoome ut, eller på de grønne pilene for å se tilstøtende kart.


METAR-TAF: